createdAt,value
2023-04-10T00:02:24.914Z,2.67
2023-04-10T00:05:03.429Z,2.65
2023-04-10T00:07:41.863Z,2.50
2023-04-10T00:10:09.940Z,2.50
2023-04-10T00:12:55.262Z,2.90
2023-04-10T00:15:22.709Z,2.25
2023-04-10T00:18:04.520Z,2.38
2023-04-10T00:20:32.576Z,2.50
2023-04-10T00:25:53.745Z,2.47
2023-04-10T00:28:24.205Z,2.72
2023-04-10T00:30:57.559Z,3.20
2023-04-10T00:33:32.487Z,2.50
2023-04-10T00:36:03.464Z,3.10
2023-04-10T00:41:19.174Z,2.63
2023-04-10T00:43:49.222Z,2.38
2023-04-10T00:46:17.373Z,2.92
2023-04-10T00:48:47.797Z,2.42
2023-04-10T00:51:17.484Z,2.50
2023-04-10T00:53:55.552Z,2.42
2023-04-10T00:56:25.295Z,2.38
2023-04-10T00:58:52.649Z,2.72
2023-04-10T01:01:19.797Z,2.20
2023-04-10T01:03:50.177Z,2.13
2023-04-10T01:06:23.437Z,2.00
2023-04-10T01:08:56.093Z,2.53
2023-04-10T01:11:53.880Z,2.28
2023-04-10T01:14:57.909Z,2.05
2023-04-10T01:17:44.145Z,2.10
2023-04-10T01:20:17.075Z,2.00
2023-04-10T01:23:32.356Z,2.33
2023-04-10T01:26:11.766Z,2.13
2023-04-10T01:28:50.888Z,2.40
2023-04-10T01:31:26.328Z,2.55
2023-04-10T01:34:00.507Z,2.15
2023-04-10T01:36:38.780Z,2.30
2023-04-10T01:39:07.234Z,2.35
2023-04-10T01:41:38.667Z,2.05
2023-04-10T01:44:07.963Z,2.28
2023-04-10T01:46:37.605Z,2.28
2023-04-10T01:49:05.555Z,2.10
2023-04-10T01:51:34.718Z,2.22
2023-04-10T01:54:06.916Z,2.55
2023-04-10T01:56:35.346Z,2.25
2023-04-10T01:59:12.687Z,2.28
2023-04-10T02:05:31.313Z,2.05
2023-04-10T02:11:48.995Z,2.33
2023-04-10T02:14:39.237Z,2.70
2023-04-10T02:21:23.076Z,2.13
2023-04-10T02:24:30.315Z,2.45
2023-04-10T02:30:29.149Z,2.58
2023-04-10T02:33:16.332Z,2.53
2023-04-10T02:36:41.419Z,2.80
2023-04-10T02:39:14.884Z,2.38
2023-04-10T02:42:04.459Z,2.35
2023-04-10T02:47:32.322Z,3.10
2023-04-10T02:50:12.143Z,2.40
2023-04-10T02:52:59.754Z,3.05
2023-04-10T02:56:19.335Z,2.95
2023-04-10T02:58:48.850Z,2.75
2023-04-10T03:01:29.014Z,3.03
2023-04-10T03:04:03.239Z,3.35
2023-04-10T03:07:14.998Z,2.95
2023-04-10T03:10:06.984Z,3.00
2023-04-10T03:17:27.473Z,2.88
2023-04-10T03:20:00.727Z,2.90
2023-04-10T03:22:32.505Z,3.15
2023-04-10T03:25:03.093Z,3.33
2023-04-10T03:27:32.365Z,3.22
2023-04-10T03:29:59.095Z,3.15
2023-04-10T03:32:28.227Z,3.40
2023-04-10T03:34:54.825Z,3.17
2023-04-10T03:37:29.279Z,2.83
2023-04-10T03:39:59.888Z,3.10
2023-04-10T03:42:27.205Z,2.75
2023-04-10T03:44:54.087Z,2.85
2023-04-10T03:47:20.766Z,3.10
2023-04-10T03:49:47.465Z,2.60
2023-04-10T03:52:14.434Z,2.88
2023-04-10T03:54:41.191Z,3.15
2023-04-10T03:57:07.979Z,3.30
2023-04-10T03:59:38.629Z,3.13
2023-04-10T04:02:07.655Z,3.28
2023-04-10T04:04:34.834Z,3.08
2023-04-10T04:07:01.801Z,3.13
2023-04-10T04:09:28.976Z,3.85
2023-04-10T04:11:57.158Z,3.58
2023-04-10T04:14:24.181Z,3.65
2023-04-10T04:16:51.191Z,4.03
2023-04-10T04:19:20.414Z,3.80
2023-04-10T04:21:47.722Z,3.55
2023-04-10T04:24:14.832Z,3.78
2023-04-10T04:26:42.070Z,3.53
2023-04-10T04:29:09.028Z,3.83
2023-04-10T04:31:36.557Z,3.60
2023-04-10T04:34:05.871Z,3.95
2023-04-10T04:36:32.946Z,3.72
2023-04-10T04:38:59.914Z,3.97
2023-04-10T04:41:26.687Z,5.43
2023-04-10T04:43:55.942Z,4.78
2023-04-10T04:46:23.275Z,5.60
2023-04-10T04:48:54.518Z,4.93
2023-04-10T04:51:27.603Z,5.15
2023-04-10T04:53:58.105Z,4.93
2023-04-10T04:56:25.734Z,4.47
2023-04-10T04:58:53.311Z,4.82
2023-04-10T05:01:27.182Z,4.80
2023-04-10T05:04:24.237Z,4.70
2023-04-10T05:07:07.312Z,4.68
2023-04-10T05:09:34.061Z,4.88
2023-04-10T05:12:01.326Z,4.70
2023-04-10T05:14:28.261Z,5.25
2023-04-10T05:17:10.922Z,6.53
2023-04-10T05:19:37.689Z,5.57
2023-04-10T05:22:04.899Z,5.15
2023-04-10T05:24:32.221Z,6.43
2023-04-10T05:26:59.456Z,6.93
2023-04-10T05:29:27.031Z,6.68
2023-04-10T05:31:56.422Z,7.80
2023-04-10T05:34:25.832Z,7.97
2023-04-10T05:36:53.092Z,8.57
2023-04-10T05:39:19.834Z,8.82
2023-04-10T05:41:46.692Z,8.07
2023-04-10T05:44:24.189Z,9.45
2023-04-10T05:46:51.531Z,9.40
2023-04-10T05:49:18.432Z,10.05
2023-04-10T05:51:50.274Z,14.05
2023-04-10T05:54:17.520Z,10.25
2023-04-10T05:56:50.025Z,8.00
2023-04-10T05:59:16.818Z,8.02
2023-04-10T06:01:44.810Z,7.95
2023-04-10T06:06:39.314Z,7.70
2023-04-10T06:09:08.076Z,9.57
2023-04-10T06:11:41.292Z,8.00
2023-04-10T06:14:08.670Z,8.95
2023-04-10T06:16:41.910Z,24.85
2023-04-10T06:19:18.672Z,11.63
2023-04-10T06:21:45.703Z,7.55
2023-04-10T06:24:13.038Z,8.20
2023-04-10T06:26:40.343Z,7.43
2023-04-10T06:29:07.687Z,8.30
2023-04-10T06:31:37.443Z,7.35
2023-04-10T06:34:04.426Z,5.80
2023-04-10T06:36:37.580Z,5.70
2023-04-10T06:39:08.534Z,4.95
2023-04-10T06:41:36.171Z,5.50
2023-04-10T06:44:06.919Z,4.43
2023-04-10T06:46:37.275Z,5.45
2023-04-10T06:49:07.576Z,5.40
2023-04-10T06:51:35.013Z,4.85
2023-04-10T06:54:02.295Z,4.63
2023-04-10T06:56:35.531Z,4.53
2023-04-10T06:59:03.636Z,3.90
2023-04-10T07:01:30.612Z,15.38
2023-04-10T07:03:57.575Z,16.57
2023-04-10T07:06:24.727Z,7.87
2023-04-10T07:08:51.754Z,6.03
2023-04-10T07:11:18.687Z,13.57
2023-04-10T07:13:49.443Z,10.68
2023-04-10T07:16:17.221Z,7.10
2023-04-10T07:18:47.540Z,6.18
2023-04-10T07:21:14.513Z,6.03
2023-04-10T07:23:41.313Z,4.72
2023-04-10T07:26:11.384Z,4.38
2023-04-10T07:28:38.729Z,4.53
2023-04-10T07:31:06.801Z,6.25
2023-04-10T07:33:35.448Z,8.25
2023-04-10T07:36:11.733Z,12.82
2023-04-10T07:38:38.842Z,8.98
2023-04-10T07:41:18.701Z,11.45
2023-04-10T07:43:46.287Z,7.28
2023-04-10T07:46:17.846Z,5.38
2023-04-10T07:48:51.728Z,7.25
2023-04-10T07:51:18.848Z,4.80
2023-04-10T07:54:12.210Z,5.32
2023-04-10T07:56:45.493Z,9.70
2023-04-10T07:59:24.792Z,5.40
2023-04-10T08:01:51.735Z,5.18
2023-04-10T08:04:30.708Z,4.82
2023-04-10T08:07:04.417Z,3.70
2023-04-10T08:09:34.511Z,7.38
2023-04-10T08:12:05.015Z,5.88
2023-04-10T08:14:43.441Z,9.73
2023-04-10T08:17:15.500Z,10.25
2023-04-10T08:19:45.730Z,7.00
2023-04-10T08:22:32.891Z,3.95
2023-04-10T08:25:01.551Z,3.72
2023-04-10T08:27:28.657Z,4.15
2023-04-10T08:29:56.024Z,4.53
2023-04-10T08:32:24.687Z,7.13
2023-04-10T08:34:51.541Z,3.78
2023-04-10T08:37:37.122Z,3.60
2023-04-10T08:40:12.853Z,4.03
2023-04-10T08:42:43.341Z,3.45
2023-04-10T08:45:10.950Z,3.95
2023-04-10T08:47:51.175Z,3.80
2023-04-10T08:50:19.013Z,3.65
2023-04-10T08:55:19.997Z,3.47
2023-04-10T08:58:00.431Z,3.58
2023-04-10T09:00:28.616Z,3.80
2023-04-10T09:02:58.774Z,3.45
2023-04-10T09:05:28.246Z,3.70
2023-04-10T09:07:55.432Z,4.07
2023-04-10T09:10:27.618Z,3.78
2023-04-10T09:12:56.935Z,2.83
2023-04-10T09:15:23.964Z,3.80
2023-04-10T09:18:04.303Z,3.92
2023-04-10T09:20:32.786Z,3.67
2023-04-10T09:23:00.040Z,4.53
2023-04-10T09:25:43.698Z,4.43
2023-04-10T09:28:13.759Z,3.78
2023-04-10T09:30:42.497Z,3.50
2023-04-10T09:36:27.384Z,3.42
2023-04-10T09:38:59.565Z,3.20
2023-04-10T09:41:35.960Z,3.30
2023-04-10T09:50:40.923Z,3.20
2023-04-10T09:53:16.933Z,3.10
2023-04-10T09:55:44.345Z,3.85
2023-04-10T10:01:16.671Z,3.55
2023-04-10T10:06:12.199Z,2.92
2023-04-10T10:11:11.681Z,2.08
2023-04-10T10:13:41.663Z,3.00
2023-04-10T10:16:32.021Z,2.83
2023-04-10T10:19:07.022Z,3.00
2023-04-10T10:21:34.943Z,3.00
2023-04-10T10:26:35.685Z,2.65
2023-04-10T10:29:05.652Z,2.85
2023-04-10T10:31:35.749Z,2.90
2023-04-10T10:34:08.328Z,3.25
2023-04-10T10:36:36.604Z,3.55
2023-04-10T10:39:40.751Z,3.10
2023-04-10T10:42:14.253Z,2.85
2023-04-10T10:44:52.599Z,3.00
2023-04-10T10:47:33.406Z,2.95
2023-04-10T10:50:02.495Z,3.13
2023-04-10T10:52:47.026Z,2.65
2023-04-10T10:55:22.764Z,2.90
2023-04-10T10:58:05.401Z,3.60
2023-04-10T11:01:01.999Z,3.33
2023-04-10T11:03:38.204Z,3.88
2023-04-10T11:06:08.646Z,5.40
2023-04-10T11:08:46.205Z,3.47
2023-04-10T11:11:24.430Z,3.38
2023-04-10T11:13:56.970Z,2.75
2023-04-10T11:16:46.761Z,2.97
2023-04-10T11:19:16.752Z,2.95
2023-04-10T11:22:15.969Z,3.15
2023-04-10T11:24:58.099Z,2.88
2023-04-10T11:27:46.535Z,3.22
2023-04-10T11:30:47.657Z,3.60
2023-04-10T11:33:17.977Z,4.25
2023-04-10T11:35:55.255Z,2.75
2023-04-10T11:38:22.868Z,3.50
2023-04-10T11:40:58.226Z,4.10
2023-04-10T11:43:25.179Z,3.20
2023-04-10T11:46:06.601Z,3.13
2023-04-10T11:48:43.209Z,2.88
2023-04-10T11:51:12.977Z,3.00
2023-04-10T11:53:40.857Z,3.30
2023-04-10T11:58:54.997Z,3.28
2023-04-10T12:01:23.592Z,4.10
2023-04-10T12:03:51.168Z,3.55
2023-04-10T12:06:19.758Z,3.65
2023-04-10T12:08:54.177Z,3.30
2023-04-10T12:14:04.834Z,4.00
2023-04-10T12:16:34.758Z,3.60
2023-04-10T12:19:03.201Z,3.08
2023-04-10T12:21:35.890Z,3.45
2023-04-10T12:24:05.759Z,3.28
2023-04-10T12:26:33.014Z,3.50
2023-04-10T12:28:59.996Z,3.55
2023-04-10T12:31:40.089Z,3.33
2023-04-10T12:34:09.818Z,4.07
2023-04-10T12:36:40.630Z,3.60
2023-04-10T12:39:23.221Z,3.90
2023-04-10T12:41:50.127Z,3.47
2023-04-10T12:44:18.790Z,3.73
2023-04-10T12:46:46.238Z,3.58
2023-04-10T12:49:16.082Z,4.78
2023-04-10T12:51:47.497Z,3.90
2023-04-10T12:54:32.392Z,4.30
2023-04-10T12:56:59.873Z,4.78
2023-04-10T12:59:28.319Z,3.60
2023-04-10T13:01:55.695Z,3.33
2023-04-10T13:04:24.033Z,3.72
2023-04-10T13:06:54.466Z,4.60
2023-04-10T13:09:22.105Z,4.68
2023-04-10T13:11:51.520Z,4.30
2023-04-10T13:14:18.757Z,4.28
2023-04-10T13:16:46.226Z,4.60
2023-04-10T13:19:13.264Z,4.80
2023-04-10T13:21:40.069Z,4.20
2023-04-10T13:24:07.276Z,4.10
2023-04-10T13:26:34.260Z,4.22
2023-04-10T13:29:01.130Z,4.83
2023-04-10T13:31:38.274Z,4.15
2023-04-10T13:34:09.513Z,4.00
2023-04-10T13:36:36.710Z,4.75
2023-04-10T13:39:03.995Z,4.47
2023-04-10T13:41:31.185Z,4.63
2023-04-10T13:43:58.332Z,4.57
2023-04-10T13:46:26.256Z,5.35
2023-04-10T13:51:26.587Z,5.28
2023-04-10T13:53:53.888Z,5.68
2023-04-10T13:56:21.777Z,5.60
2023-04-10T14:01:22.031Z,6.78
2023-04-10T14:03:49.290Z,11.27
2023-04-10T14:06:16.637Z,7.40
2023-04-10T14:08:43.661Z,9.38
2023-04-10T14:11:10.599Z,6.60
2023-04-10T14:13:37.490Z,9.80
2023-04-10T14:16:04.642Z,8.20
2023-04-10T14:18:31.706Z,6.70
2023-04-10T14:20:58.614Z,6.05
2023-04-10T14:23:26.391Z,6.43
2023-04-10T14:25:53.469Z,6.25
2023-04-10T14:28:20.829Z,5.25
2023-04-10T14:30:52.027Z,5.18
2023-04-10T14:33:42.881Z,4.20
2023-04-10T14:36:08.922Z,5.00
2023-04-10T14:38:36.872Z,4.78
2023-04-10T14:43:39.604Z,5.82
2023-04-10T14:46:06.964Z,4.63
2023-04-10T14:48:34.932Z,4.63
2023-04-10T14:51:02.482Z,4.50
2023-04-10T14:53:29.595Z,5.97
2023-04-10T14:55:56.925Z,5.70
2023-04-10T14:58:24.421Z,4.97
2023-04-10T15:00:52.343Z,3.47
2023-04-10T15:03:24.537Z,3.80
2023-04-10T15:05:59.590Z,3.63
2023-04-10T15:08:27.419Z,4.40
2023-04-10T15:11:11.551Z,3.55
2023-04-10T15:13:39.233Z,4.47
2023-04-10T15:16:08.394Z,5.63
2023-04-10T15:18:35.397Z,5.88
2023-04-10T15:21:05.310Z,4.20
2023-04-10T15:23:32.519Z,4.80
2023-04-10T15:25:59.954Z,4.43
2023-04-10T15:28:28.733Z,4.53
2023-04-10T15:30:58.763Z,5.07
2023-04-10T15:33:29.645Z,4.60
2023-04-10T15:36:03.084Z,10.77
2023-04-10T15:38:30.706Z,5.57
2023-04-10T15:41:00.758Z,4.80
2023-04-10T15:43:31.929Z,5.55
2023-04-10T15:46:05.159Z,5.20
2023-04-10T15:48:35.934Z,4.82
2023-04-10T15:51:07.751Z,4.78
2023-04-10T15:53:35.613Z,4.82
2023-04-10T15:56:05.981Z,5.25
2023-04-10T15:58:34.150Z,5.30
2023-04-10T16:01:04.263Z,5.40
2023-04-10T16:03:35.012Z,5.18
2023-04-10T16:06:02.318Z,6.45
2023-04-10T16:08:29.597Z,10.07
2023-04-10T16:11:00.645Z,8.02
2023-04-10T16:13:28.288Z,6.93
2023-04-10T16:15:58.637Z,5.10
2023-04-10T16:18:29.545Z,5.22
2023-04-10T16:21:06.123Z,5.15
2023-04-10T16:23:39.084Z,5.78
2023-04-10T16:26:11.443Z,6.38
2023-04-10T16:28:38.828Z,6.35
2023-04-10T16:31:18.089Z,6.35
2023-04-10T16:33:57.969Z,6.55
2023-04-10T16:36:29.040Z,8.68
2023-04-10T16:39:19.992Z,10.60
2023-04-10T16:41:47.118Z,9.85
2023-04-10T16:44:15.056Z,8.88
2023-04-10T16:49:29.797Z,8.25
2023-04-10T16:51:56.806Z,9.00
2023-04-10T16:54:28.948Z,8.70
2023-04-10T16:57:00.374Z,9.32
2023-04-10T16:59:27.485Z,8.73
2023-04-10T17:05:06.272Z,9.20
2023-04-10T17:07:38.427Z,8.10
2023-04-10T17:10:06.152Z,8.88
2023-04-10T17:12:33.132Z,8.15
2023-04-10T17:15:06.406Z,7.63
2023-04-10T17:17:54.766Z,8.05
2023-04-10T17:20:48.401Z,7.70
2023-04-10T17:23:19.653Z,8.18
2023-04-10T17:28:30.560Z,10.60
2023-04-10T17:31:10.432Z,9.20
2023-04-10T17:36:49.963Z,10.50
2023-04-10T17:39:26.838Z,10.00
2023-04-10T17:41:58.260Z,10.48
2023-04-10T17:44:33.063Z,10.43
2023-04-10T17:47:47.015Z,8.95
2023-04-10T17:50:22.124Z,7.93
2023-04-10T17:53:32.846Z,8.40
2023-04-10T17:56:07.893Z,7.93
2023-04-10T17:58:54.136Z,8.30
2023-04-10T18:01:31.589Z,8.07
2023-04-10T18:04:00.586Z,9.40
2023-04-10T18:06:33.025Z,10.57
2023-04-10T18:09:16.660Z,10.90
2023-04-10T18:11:58.593Z,12.73
2023-04-10T18:14:32.858Z,12.82
2023-04-10T18:17:57.763Z,11.68
2023-04-10T18:20:35.762Z,10.32
2023-04-10T18:23:16.036Z,10.30
2023-04-10T18:26:07.770Z,10.45
2023-04-10T18:28:57.476Z,14.43
2023-04-10T18:31:42.284Z,29.45
2023-04-10T18:34:57.528Z,19.77
2023-04-10T18:37:48.088Z,11.05
2023-04-10T18:40:48.293Z,11.60
2023-04-10T18:43:30.390Z,10.65
2023-04-10T18:49:40.268Z,7.25
2023-04-10T18:52:08.631Z,7.53
2023-04-10T18:54:39.056Z,7.35
2023-04-10T18:57:52.062Z,7.32
2023-04-10T19:00:20.256Z,6.20
2023-04-10T19:02:58.788Z,5.68
2023-04-10T19:09:09.082Z,6.38
2023-04-10T19:11:37.203Z,7.53
2023-04-10T19:14:05.032Z,7.00
2023-04-10T19:24:42.429Z,6.75
2023-04-10T19:31:44.762Z,6.28
2023-04-10T20:03:53.722Z,5.43
2023-04-10T20:07:30.874Z,10.10
2023-04-10T20:10:24.279Z,8.85
2023-04-10T20:16:47.239Z,5.45
2023-04-10T20:43:19.558Z,6.22
2023-04-10T20:46:16.328Z,6.68
2023-04-10T20:48:57.690Z,6.65
2023-04-10T20:51:42.252Z,6.07
2023-04-10T21:15:14.133Z,5.90
2023-04-10T21:19:27.169Z,4.93
2023-04-10T21:37:03.860Z,5.40
2023-04-10T21:40:15.656Z,5.68
2023-04-10T21:43:58.146Z,5.25
2023-04-10T22:13:06.762Z,5.65
2023-04-10T22:49:25.957Z,5.70
2023-04-10T22:52:38.899Z,5.22
2023-04-10T22:55:42.062Z,5.15
2023-04-10T23:07:03.249Z,4.95
2023-04-10T23:13:41.278Z,4.93
2023-04-10T23:20:31.097Z,5.05
2023-04-10T23:33:36.455Z,5.30
2023-04-10T23:45:01.912Z,5.15
2023-04-10T23:56:18.767Z,5.25
